sensor_id;sensor_type;location;lat;lon;timestamp;temperature;humidity
22167;DHT22;11249;52.468;13.776;2022-10-28T00:01:22;12.30;99.90
22167;DHT22;11249;52.468;13.776;2022-10-28T00:03:51;12.30;99.90
22167;DHT22;11249;52.468;13.776;2022-10-28T00:06:27;12.40;99.90
22167;DHT22;11249;52.468;13.776;2022-10-28T00:08:54;12.40;99.90
22167;DHT22;11249;52.468;13.776;2022-10-28T00:11:25;12.30;99.90
22167;DHT22;11249;52.468;13.776;2022-10-28T00:13:53;12.30;99.90
22167;DHT22;11249;52.468;13.776;2022-10-28T00:16:23;12.30;99.90
22167;DHT22;11249;52.468;13.776;2022-10-28T00:18:51;12.30;99.90
22167;DHT22;11249;52.468;13.776;2022-10-28T00:21:24;12.40;99.90
22167;DHT22;11249;52.468;13.776;2022-10-28T00:23:52;12.50;99.90
22167;DHT22;11249;52.468;13.776;2022-10-28T00:26:21;12.50;99.90
22167;DHT22;11249;52.468;13.776;2022-10-28T00:28:51;12.50;99.90
22167;DHT22;11249;52.468;13.776;2022-10-28T00:31:20;12.50;99.90
22167;DHT22;11249;52.468;13.776;2022-10-28T00:33:48;12.50;99.90
22167;DHT22;11249;52.468;13.776;2022-10-28T00:36:23;12.60;99.90
22167;DHT22;11249;52.468;13.776;2022-10-28T00:38:51;12.50;99.90
22167;DHT22;11249;52.468;13.776;2022-10-28T00:41:23;12.60;99.90
22167;DHT22;11249;52.468;13.776;2022-10-28T00:43:52;12.60;99.90
22167;DHT22;11249;52.468;13.776;2022-10-28T00:46:42;12.60;99.90
22167;DHT22;11249;52.468;13.776;2022-10-28T00:49:23;12.60;99.90
22167;DHT22;11249;52.468;13.776;2022-10-28T00:51:55;12.60;99.90
22167;DHT22;11249;52.468;13.776;2022-10-28T00:54:23;12.60;99.90
22167;DHT22;11249;52.468;13.776;2022-10-28T00:56:53;12.50;99.90
22167;DHT22;11249;52.468;13.776;2022-10-28T00:59:28;12.50;99.90
22167;DHT22;11249;52.468;13.776;2022-10-28T01:01:56;12.50;99.90
22167;DHT22;11249;52.468;13.776;2022-10-28T01:04:24;12.50;99.90
22167;DHT22;11249;52.468;13.776;2022-10-28T01:06:51;12.40;99.90
22167;DHT22;11249;52.468;13.776;2022-10-28T01:09:18;12.40;99.90
22167;DHT22;11249;52.468;13.776;2022-10-28T01:15:04;12.40;99.90
22167;DHT22;11249;52.468;13.776;2022-10-28T01:31:10;12.20;99.90
22167;DHT22;11249;52.468;13.776;2022-10-28T01:33:45;12.20;99.90
22167;DHT22;11249;52.468;13.776;2022-10-28T01:36:26;12.20;99.90
22167;DHT22;11249;52.468;13.776;2022-10-28T01:39:04;12.20;99.90
22167;DHT22;11249;52.468;13.776;2022-10-28T01:41:46;12.20;99.90
22167;DHT22;11249;52.468;13.776;2022-10-28T01:44:36;12.20;99.90
22167;DHT22;11249;52.468;13.776;2022-10-28T01:47:11;12.30;99.90
22167;DHT22;11249;52.468;13.776;2022-10-28T01:49:46;12.30;99.90
22167;DHT22;11249;52.468;13.776;2022-10-28T01:52:18;12.40;99.90
22167;DHT22;11249;52.468;13.776;2022-10-28T01:54:48;12.40;99.90
22167;DHT22;11249;52.468;13.776;2022-10-28T01:57:17;12.40;99.90
22167;DHT22;11249;52.468;13.776;2022-10-28T01:59:46;12.40;99.90
22167;DHT22;11249;52.468;13.776;2022-10-28T02:02:14;12.40;99.90
22167;DHT22;11249;52.468;13.776;2022-10-28T02:04:41;12.40;99.90
22167;DHT22;11249;52.468;13.776;2022-10-28T02:07:08;12.40;99.90
22167;DHT22;11249;52.468;13.776;2022-10-28T02:10:05;12.30;99.90
22167;DHT22;11249;52.468;13.776;2022-10-28T02:12:39;12.30;99.90
22167;DHT22;11249;52.468;13.776;2022-10-28T02:15:31;12.30;99.90
22167;DHT22;11249;52.468;13.776;2022-10-28T02:18:28;12.30;99.90
22167;DHT22;11249;52.468;13.776;2022-10-28T02:21:05;12.20;99.90
22167;DHT22;11249;52.468;13.776;2022-10-28T02:23:51;12.20;99.90
22167;DHT22;11249;52.468;13.776;2022-10-28T02:26:30;12.20;99.90
22167;DHT22;11249;52.468;13.776;2022-10-28T02:29:26;12.20;99.90
22167;DHT22;11249;52.468;13.776;2022-10-28T02:31:59;12.20;99.90
22167;DHT22;11249;52.468;13.776;2022-10-28T02:34:32;12.10;99.90
22167;DHT22;11249;52.468;13.776;2022-10-28T02:37:02;12.10;99.90
22167;DHT22;11249;52.468;13.776;2022-10-28T02:39:35;12.10;99.90
22167;DHT22;11249;52.468;13.776;2022-10-28T02:42:07;12.00;99.90
22167;DHT22;11249;52.468;13.776;2022-10-28T02:44:40;12.00;99.90
22167;DHT22;11249;52.468;13.776;2022-10-28T02:47:13;12.00;99.90
22167;DHT22;11249;52.468;13.776;2022-10-28T02:49:44;11.90;99.90
22167;DHT22;11249;52.468;13.776;2022-10-28T02:52:13;11.90;99.90
22167;DHT22;11249;52.468;13.776;2022-10-28T02:54:46;11.90;99.90
22167;DHT22;11249;52.468;13.776;2022-10-28T02:57:21;11.90;99.90
22167;DHT22;11249;52.468;13.776;2022-10-28T03:00:00;11.90;99.90
22167;DHT22;11249;52.468;13.776;2022-10-28T03:02:27;11.80;99.90
22167;DHT22;11249;52.468;13.776;2022-10-28T03:04:54;11.90;99.90
22167;DHT22;11249;52.468;13.776;2022-10-28T03:07:21;11.80;99.90
22167;DHT22;11249;52.468;13.776;2022-10-28T03:09:48;11.80;99.90
22167;DHT22;11249;52.468;13.776;2022-10-28T03:12:14;11.80;99.90
22167;DHT22;11249;52.468;13.776;2022-10-28T03:14:41;11.80;99.90
22167;DHT22;11249;52.468;13.776;2022-10-28T03:17:08;11.70;99.90
22167;DHT22;11249;52.468;13.776;2022-10-28T03:19:34;11.70;99.90
22167;DHT22;11249;52.468;13.776;2022-10-28T03:22:01;11.60;99.90
22167;DHT22;11249;52.468;13.776;2022-10-28T03:24:28;11.60;99.90
22167;DHT22;11249;52.468;13.776;2022-10-28T03:26:54;11.60;99.90
22167;DHT22;11249;52.468;13.776;2022-10-28T03:29:21;11.50;99.90
22167;DHT22;11249;52.468;13.776;2022-10-28T03:31:48;11.40;99.90
22167;DHT22;11249;52.468;13.776;2022-10-28T03:34:15;11.40;99.90
22167;DHT22;11249;52.468;13.776;2022-10-28T03:36:41;11.40;99.90
22167;DHT22;11249;52.468;13.776;2022-10-28T03:39:08;11.30;99.90
22167;DHT22;11249;52.468;13.776;2022-10-28T03:41:35;11.30;99.90
22167;DHT22;11249;52.468;13.776;2022-10-28T03:44:01;11.20;99.90
22167;DHT22;11249;52.468;13.776;2022-10-28T03:46:28;11.20;99.90
22167;DHT22;11249;52.468;13.776;2022-10-28T03:49:00;11.10;99.90
22167;DHT22;11249;52.468;13.776;2022-10-28T03:51:27;11.10;99.90
22167;DHT22;11249;52.468;13.776;2022-10-28T03:53:54;11.10;99.90
22167;DHT22;11249;52.468;13.776;2022-10-28T03:56:20;11.00;99.90
22167;DHT22;11249;52.468;13.776;2022-10-28T03:58:48;10.90;99.90
22167;DHT22;11249;52.468;13.776;2022-10-28T04:01:14;10.90;99.90
22167;DHT22;11249;52.468;13.776;2022-10-28T04:03:41;10.80;99.90
22167;DHT22;11249;52.468;13.776;2022-10-28T04:06:08;10.80;99.90
22167;DHT22;11249;52.468;13.776;2022-10-28T04:08:38;10.70;99.90
22167;DHT22;11249;52.468;13.776;2022-10-28T04:11:05;10.70;99.90
22167;DHT22;11249;52.468;13.776;2022-10-28T04:13:31;10.70;99.90
22167;DHT22;11249;52.468;13.776;2022-10-28T04:15:58;10.60;99.90
22167;DHT22;11249;52.468;13.776;2022-10-28T04:18:25;10.60;99.90
22167;DHT22;11249;52.468;13.776;2022-10-28T04:20:51;10.50;99.90
22167;DHT22;11249;52.468;13.776;2022-10-28T04:23:18;10.50;99.90
22167;DHT22;11249;52.468;13.776;2022-10-28T04:25:46;10.50;99.90
22167;DHT22;11249;52.468;13.776;2022-10-28T04:28:12;10.40;99.90
22167;DHT22;11249;52.468;13.776;2022-10-28T04:30:39;10.40;99.90
22167;DHT22;11249;52.468;13.776;2022-10-28T04:33:06;10.30;99.90
22167;DHT22;11249;52.468;13.776;2022-10-28T04:35:32;10.30;99.90
22167;DHT22;11249;52.468;13.776;2022-10-28T04:37:59;10.30;99.90
22167;DHT22;11249;52.468;13.776;2022-10-28T04:40:26;10.20;99.90
22167;DHT22;11249;52.468;13.776;2022-10-28T04:42:53;10.20;99.90
22167;DHT22;11249;52.468;13.776;2022-10-28T04:45:20;10.20;99.90
22167;DHT22;11249;52.468;13.776;2022-10-28T04:47:46;10.20;99.90
22167;DHT22;11249;52.468;13.776;2022-10-28T04:50:13;10.20;99.90
22167;DHT22;11249;52.468;13.776;2022-10-28T04:52:40;10.20;99.90
22167;DHT22;11249;52.468;13.776;2022-10-28T04:55:06;10.10;99.90
22167;DHT22;11249;52.468;13.776;2022-10-28T04:57:33;10.10;99.90
22167;DHT22;11249;52.468;13.776;2022-10-28T05:00:00;10.10;99.90
22167;DHT22;11249;52.468;13.776;2022-10-28T05:02:27;10.00;99.90
22167;DHT22;11249;52.468;13.776;2022-10-28T05:04:54;10.00;99.90
22167;DHT22;11249;52.468;13.776;2022-10-28T05:07:21;10.00;99.90
22167;DHT22;11249;52.468;13.776;2022-10-28T05:09:49;9.90;99.90
22167;DHT22;11249;52.468;13.776;2022-10-28T05:12:15;9.90;99.90
22167;DHT22;11249;52.468;13.776;2022-10-28T05:14:42;9.90;99.90
22167;DHT22;11249;52.468;13.776;2022-10-28T05:17:10;9.90;99.90
22167;DHT22;11249;52.468;13.776;2022-10-28T05:19:36;9.80;99.90
22167;DHT22;11249;52.468;13.776;2022-10-28T05:22:03;9.80;99.90
22167;DHT22;11249;52.468;13.776;2022-10-28T05:24:30;9.80;99.90
22167;DHT22;11249;52.468;13.776;2022-10-28T05:26:58;9.70;99.90
22167;DHT22;11249;52.468;13.776;2022-10-28T05:29:25;9.70;99.90
22167;DHT22;11249;52.468;13.776;2022-10-28T05:31:58;9.70;99.90
22167;DHT22;11249;52.468;13.776;2022-10-28T05:34:25;9.70;99.90
22167;DHT22;11249;52.468;13.776;2022-10-28T05:36:52;9.70;99.90
22167;DHT22;11249;52.468;13.776;2022-10-28T05:39:19;9.70;99.90
22167;DHT22;11249;52.468;13.776;2022-10-28T05:41:45;9.70;99.90
22167;DHT22;11249;52.468;13.776;2022-10-28T05:44:12;9.70;99.90
22167;DHT22;11249;52.468;13.776;2022-10-28T05:46:39;9.60;99.90
22167;DHT22;11249;52.468;13.776;2022-10-28T05:49:06;9.60;99.90
22167;DHT22;11249;52.468;13.776;2022-10-28T05:51:32;9.60;99.90
22167;DHT22;11249;52.468;13.776;2022-10-28T05:53:59;9.60;99.90
22167;DHT22;11249;52.468;13.776;2022-10-28T05:56:26;9.60;99.90
22167;DHT22;11249;52.468;13.776;2022-10-28T05:58:52;9.60;99.90
22167;DHT22;11249;52.468;13.776;2022-10-28T06:01:19;9.60;99.90
22167;DHT22;11249;52.468;13.776;2022-10-28T06:03:46;9.60;99.90
22167;DHT22;11249;52.468;13.776;2022-10-28T06:06:12;9.60;99.90
22167;DHT22;11249;52.468;13.776;2022-10-28T06:08:39;9.60;99.90
22167;DHT22;11249;52.468;13.776;2022-10-28T06:11:06;9.60;99.90
22167;DHT22;11249;52.468;13.776;2022-10-28T06:13:32;9.60;99.90
22167;DHT22;11249;52.468;13.776;2022-10-28T06:15:59;9.70;99.90
22167;DHT22;11249;52.468;13.776;2022-10-28T06:18:26;9.70;99.90
22167;DHT22;11249;52.468;13.776;2022-10-28T06:20:56;9.70;99.90
22167;DHT22;11249;52.468;13.776;2022-10-28T06:23:25;9.70;99.90
22167;DHT22;11249;52.468;13.776;2022-10-28T06:25:56;9.70;99.90
22167;DHT22;11249;52.468;13.776;2022-10-28T06:28:24;9.80;99.90
22167;DHT22;11249;52.468;13.776;2022-10-28T06:30:51;9.80;99.90
22167;DHT22;11249;52.468;13.776;2022-10-28T06:33:18;9.90;99.90
22167;DHT22;11249;52.468;13.776;2022-10-28T06:35:45;9.90;99.90
22167;DHT22;11249;52.468;13.776;2022-10-28T06:38:12;10.00;99.90
22167;DHT22;11249;52.468;13.776;2022-10-28T06:40:38;10.00;99.90
22167;DHT22;11249;52.468;13.776;2022-10-28T06:43:06;10.10;99.90
22167;DHT22;11249;52.468;13.776;2022-10-28T06:45:34;10.10;99.90
22167;DHT22;11249;52.468;13.776;2022-10-28T06:48:03;10.20;99.90
22167;DHT22;11249;52.468;13.776;2022-10-28T06:50:31;10.30;99.90
22167;DHT22;11249;52.468;13.776;2022-10-28T06:52:58;10.30;99.90
22167;DHT22;11249;52.468;13.776;2022-10-28T06:55:25;10.40;99.90
22167;DHT22;11249;52.468;13.776;2022-10-28T06:57:52;10.50;99.90
22167;DHT22;11249;52.468;13.776;2022-10-28T07:00:19;10.60;99.90
22167;DHT22;11249;52.468;13.776;2022-10-28T07:02:51;10.60;99.90
22167;DHT22;11249;52.468;13.776;2022-10-28T07:05:18;10.70;99.90
22167;DHT22;11249;52.468;13.776;2022-10-28T07:07:45;10.70;99.90
22167;DHT22;11249;52.468;13.776;2022-10-28T07:10:11;10.80;99.90
22167;DHT22;11249;52.468;13.776;2022-10-28T07:12:38;10.80;99.90
22167;DHT22;11249;52.468;13.776;2022-10-28T07:15:05;10.80;99.90
22167;DHT22;11249;52.468;13.776;2022-10-28T07:17:32;10.90;99.90
22167;DHT22;11249;52.468;13.776;2022-10-28T07:19:59;10.90;99.90
22167;DHT22;11249;52.468;13.776;2022-10-28T07:22:25;11.00;99.90
22167;DHT22;11249;52.468;13.776;2022-10-28T07:24:52;11.10;99.90
22167;DHT22;11249;52.468;13.776;2022-10-28T07:27:19;11.10;99.90
22167;DHT22;11249;52.468;13.776;2022-10-28T07:29:46;11.20;99.90
22167;DHT22;11249;52.468;13.776;2022-10-28T07:32:12;11.20;99.90
22167;DHT22;11249;52.468;13.776;2022-10-28T07:34:39;11.20;99.90
22167;DHT22;11249;52.468;13.776;2022-10-28T07:37:06;11.30;99.90
22167;DHT22;11249;52.468;13.776;2022-10-28T07:39:32;11.40;99.90
22167;DHT22;11249;52.468;13.776;2022-10-28T07:41:59;11.40;99.90
22167;DHT22;11249;52.468;13.776;2022-10-28T07:44:26;11.50;99.90
22167;DHT22;11249;52.468;13.776;2022-10-28T07:46:53;11.80;99.90
22167;DHT22;11249;52.468;13.776;2022-10-28T07:49:23;12.00;99.90
22167;DHT22;11249;52.468;13.776;2022-10-28T07:51:50;12.30;99.90
22167;DHT22;11249;52.468;13.776;2022-10-28T07:54:17;12.50;99.90
22167;DHT22;11249;52.468;13.776;2022-10-28T07:56:44;12.70;99.90
22167;DHT22;11249;52.468;13.776;2022-10-28T07:59:10;12.90;99.90
22167;DHT22;11249;52.468;13.776;2022-10-28T08:01:37;13.00;99.90
22167;DHT22;11249;52.468;13.776;2022-10-28T08:04:04;13.10;99.90
22167;DHT22;11249;52.468;13.776;2022-10-28T08:06:33;13.30;99.90
22167;DHT22;11249;52.468;13.776;2022-10-28T08:09:00;13.50;99.90
22167;DHT22;11249;52.468;13.776;2022-10-28T08:11:27;13.70;99.90
22167;DHT22;11249;52.468;13.776;2022-10-28T08:13:53;13.80;99.90
22167;DHT22;11249;52.468;13.776;2022-10-28T08:16:21;13.90;99.90
22167;DHT22;11249;52.468;13.776;2022-10-28T08:18:48;14.00;99.90
22167;DHT22;11249;52.468;13.776;2022-10-28T08:21:14;14.20;99.90
22167;DHT22;11249;52.468;13.776;2022-10-28T08:24:09;14.40;99.90
22167;DHT22;11249;52.468;13.776;2022-10-28T08:26:36;14.50;99.90
22167;DHT22;11249;52.468;13.776;2022-10-28T08:29:02;14.50;99.90
22167;DHT22;11249;52.468;13.776;2022-10-28T08:31:31;14.70;99.90
22167;DHT22;11249;52.468;13.776;2022-10-28T08:33:58;14.80;99.90
22167;DHT22;11249;52.468;13.776;2022-10-28T08:36:25;14.90;99.90
22167;DHT22;11249;52.468;13.776;2022-10-28T08:38:52;15.00;99.90
22167;DHT22;11249;52.468;13.776;2022-10-28T08:41:30;15.10;99.90
22167;DHT22;11249;52.468;13.776;2022-10-28T08:44:27;15.20;99.90
22167;DHT22;11249;52.468;13.776;2022-10-28T08:47:37;15.20;99.90
22167;DHT22;11249;52.468;13.776;2022-10-28T08:50:14;15.40;99.90
22167;DHT22;11249;52.468;13.776;2022-10-28T08:52:50;15.60;99.90
22167;DHT22;11249;52.468;13.776;2022-10-28T08:55:32;15.60;99.90
22167;DHT22;11249;52.468;13.776;2022-10-28T08:58:06;15.80;99.90
22167;DHT22;11249;52.468;13.776;2022-10-28T09:00:35;15.90;99.90
22167;DHT22;11249;52.468;13.776;2022-10-28T09:03:22;16.10;99.90
22167;DHT22;11249;52.468;13.776;2022-10-28T09:06:03;16.20;99.90
22167;DHT22;11249;52.468;13.776;2022-10-28T09:08:38;16.40;99.90
22167;DHT22;11249;52.468;13.776;2022-10-28T09:11:42;16.50;99.90
22167;DHT22;11249;52.468;13.776;2022-10-28T09:14:48;16.60;99.90
22167;DHT22;11249;52.468;13.776;2022-10-28T09:17:46;16.70;99.90
22167;DHT22;11249;52.468;13.776;2022-10-28T09:22:57;16.60;99.90
22167;DHT22;11249;52.468;13.776;2022-10-28T09:25:45;16.70;99.90
22167;DHT22;11249;52.468;13.776;2022-10-28T09:36:50;16.60;99.90
22167;DHT22;11249;52.468;13.776;2022-10-28T09:39:28;16.70;99.90
22167;DHT22;11249;52.468;13.776;2022-10-28T09:41:58;16.80;99.90
22167;DHT22;11249;52.468;13.776;2022-10-28T09:44:38;16.90;99.90
22167;DHT22;11249;52.468;13.776;2022-10-28T09:47:23;16.90;99.90
22167;DHT22;11249;52.468;13.776;2022-10-28T09:49:56;16.90;99.90
22167;DHT22;11249;52.468;13.776;2022-10-28T09:52:29;17.00;99.90
22167;DHT22;11249;52.468;13.776;2022-10-28T09:54:59;17.10;99.90
22167;DHT22;11249;52.468;13.776;2022-10-28T09:57:31;17.20;99.90
22167;DHT22;11249;52.468;13.776;2022-10-28T09:59:58;17.30;99.90
22167;DHT22;11249;52.468;13.776;2022-10-28T10:02:30;17.40;99.90
22167;DHT22;11249;52.468;13.776;2022-10-28T10:04:58;17.50;99.90
22167;DHT22;11249;52.468;13.776;2022-10-28T10:07:38;17.50;99.90
22167;DHT22;11249;52.468;13.776;2022-10-28T10:10:27;17.60;99.90
22167;DHT22;11249;52.468;13.776;2022-10-28T10:12:57;17.70;99.90
22167;DHT22;11249;52.468;13.776;2022-10-28T10:15:35;17.70;99.90
22167;DHT22;11249;52.468;13.776;2022-10-28T10:18:04;17.90;99.90
22167;DHT22;11249;52.468;13.776;2022-10-28T10:20:52;18.00;99.90
22167;DHT22;11249;52.468;13.776;2022-10-28T10:23:32;18.20;99.90
22167;DHT22;11249;52.468;13.776;2022-10-28T10:26:11;18.20;99.90
22167;DHT22;11249;52.468;13.776;2022-10-28T10:28:45;18.30;99.90
22167;DHT22;11249;52.468;13.776;2022-10-28T10:31:26;18.40;99.90
22167;DHT22;11249;52.468;13.776;2022-10-28T10:33:56;18.40;99.90
22167;DHT22;11249;52.468;13.776;2022-10-28T10:36:24;18.50;99.90
22167;DHT22;11249;52.468;13.776;2022-10-28T10:39:01;18.70;99.90
22167;DHT22;11249;52.468;13.776;2022-10-28T10:41:42;18.80;99.90
22167;DHT22;11249;52.468;13.776;2022-10-28T10:44:30;19.00;99.90
22167;DHT22;11249;52.468;13.776;2022-10-28T10:47:22;19.10;99.90
22167;DHT22;11249;52.468;13.776;2022-10-28T10:49:49;19.30;99.90
22167;DHT22;11249;52.468;13.776;2022-10-28T10:52:22;19.50;99.90
22167;DHT22;11249;52.468;13.776;2022-10-28T10:55:05;19.60;99.90
22167;DHT22;11249;52.468;13.776;2022-10-28T10:57:33;19.70;99.90
22167;DHT22;11249;52.468;13.776;2022-10-28T11:00:00;19.90;99.90
22167;DHT22;11249;52.468;13.776;2022-10-28T11:02:32;20.00;99.90
22167;DHT22;11249;52.468;13.776;2022-10-28T11:05:03;20.20;99.90
22167;DHT22;11249;52.468;13.776;2022-10-28T11:07:31;20.30;99.90
22167;DHT22;11249;52.468;13.776;2022-10-28T11:09:59;20.40;99.90
22167;DHT22;11249;52.468;13.776;2022-10-28T11:12:34;20.70;99.90
22167;DHT22;11249;52.468;13.776;2022-10-28T11:15:29;20.90;99.90
22167;DHT22;11249;52.468;13.776;2022-10-28T11:18:14;21.10;99.90
22167;DHT22;11249;52.468;13.776;2022-10-28T11:24:03;21.20;99.90
22167;DHT22;11249;52.468;13.776;2022-10-28T11:26:43;21.20;99.90
22167;DHT22;11249;52.468;13.776;2022-10-28T11:29:14;21.40;99.90
22167;DHT22;11249;52.468;13.776;2022-10-28T11:37:28;22.00;99.90
22167;DHT22;11249;52.468;13.776;2022-10-28T11:45:48;22.50;99.90
22167;DHT22;11249;52.468;13.776;2022-10-28T11:48:24;22.60;99.90
22167;DHT22;11249;52.468;13.776;2022-10-28T11:54:11;22.70;99.90
22167;DHT22;11249;52.468;13.776;2022-10-28T11:56:46;22.70;99.90
22167;DHT22;11249;52.468;13.776;2022-10-28T12:02:21;22.90;99.90
22167;DHT22;11249;52.468;13.776;2022-10-28T12:05:08;22.90;99.90
22167;DHT22;11249;52.468;13.776;2022-10-28T12:10:56;23.00;99.90
22167;DHT22;11249;52.468;13.776;2022-10-28T12:16:16;23.20;99.90
22167;DHT22;11249;52.468;13.776;2022-10-28T12:19:00;23.20;99.90
22167;DHT22;11249;52.468;13.776;2022-10-28T12:21:32;23.20;99.90
22167;DHT22;11249;52.468;13.776;2022-10-28T12:24:04;23.20;99.90
22167;DHT22;11249;52.468;13.776;2022-10-28T12:26:39;23.30;99.90
22167;DHT22;11249;52.468;13.776;2022-10-28T12:29:15;23.20;99.90
22167;DHT22;11249;52.468;13.776;2022-10-28T12:31:47;23.30;99.90
22167;DHT22;11249;52.468;13.776;2022-10-28T12:34:21;23.30;99.90
22167;DHT22;11249;52.468;13.776;2022-10-28T12:36:55;23.30;99.90
22167;DHT22;11249;52.468;13.776;2022-10-28T12:39:32;23.30;99.90
22167;DHT22;11249;52.468;13.776;2022-10-28T12:42:04;23.20;99.90
22167;DHT22;11249;52.468;13.776;2022-10-28T12:44:37;23.20;99.90
22167;DHT22;11249;52.468;13.776;2022-10-28T12:47:20;23.10;99.90
22167;DHT22;11249;52.468;13.776;2022-10-28T12:50:04;23.10;99.90
22167;DHT22;11249;52.468;13.776;2022-10-28T12:55:17;23.10;99.90
22167;DHT22;11249;52.468;13.776;2022-10-28T12:57:56;23.10;99.90
22167;DHT22;11249;52.468;13.776;2022-10-28T13:00:28;23.30;99.90
22167;DHT22;11249;52.468;13.776;2022-10-28T13:03:00;23.30;99.90
22167;DHT22;11249;52.468;13.776;2022-10-28T13:05:40;23.30;99.90
22167;DHT22;11249;52.468;13.776;2022-10-28T13:11:11;23.40;99.90
22167;DHT22;11249;52.468;13.776;2022-10-28T13:16:44;23.60;99.90
22167;DHT22;11249;52.468;13.776;2022-10-28T13:19:36;23.50;99.90
22167;DHT22;11249;52.468;13.776;2022-10-28T13:22:42;23.60;99.90
22167;DHT22;11249;52.468;13.776;2022-10-28T13:28:01;23.60;99.90
22167;DHT22;11249;52.468;13.776;2022-10-28T13:30:28;23.60;99.90
22167;DHT22;11249;52.468;13.776;2022-10-28T13:33:04;23.60;99.90
22167;DHT22;11249;52.468;13.776;2022-10-28T13:36:18;23.60;99.90
22167;DHT22;11249;52.468;13.776;2022-10-28T13:38:54;23.80;99.90
22167;DHT22;11249;52.468;13.776;2022-10-28T13:44:28;23.90;99.90
22167;DHT22;11249;52.468;13.776;2022-10-28T13:49:29;23.80;99.90
22167;DHT22;11249;52.468;13.776;2022-10-28T13:52:18;23.80;99.90
22167;DHT22;11249;52.468;13.776;2022-10-28T13:57:26;23.70;99.90
22167;DHT22;11249;52.468;13.776;2022-10-28T13:59:59;23.70;99.90
22167;DHT22;11249;52.468;13.776;2022-10-28T14:02:45;23.70;99.90
22167;DHT22;11249;52.468;13.776;2022-10-28T14:05:15;23.70;99.90
22167;DHT22;11249;52.468;13.776;2022-10-28T14:07:50;23.80;99.90
22167;DHT22;11249;52.468;13.776;2022-10-28T14:12:58;23.80;99.90
22167;DHT22;11249;52.468;13.776;2022-10-28T14:15:29;23.70;99.90
22167;DHT22;11249;52.468;13.776;2022-10-28T14:18:20;23.70;99.90
22167;DHT22;11249;52.468;13.776;2022-10-28T14:21:07;23.70;99.90
22167;DHT22;11249;52.468;13.776;2022-10-28T14:26:07;23.30;99.90
22167;DHT22;11249;52.468;13.776;2022-10-28T14:37:00;22.60;99.90
22167;DHT22;11249;52.468;13.776;2022-10-28T14:39:46;22.50;99.90
22167;DHT22;11249;52.468;13.776;2022-10-28T14:42:53;22.40;99.90
22167;DHT22;11249;52.468;13.776;2022-10-28T14:45:37;22.30;99.90
22167;DHT22;11249;52.468;13.776;2022-10-28T14:50:54;22.10;99.90
22167;DHT22;11249;52.468;13.776;2022-10-28T14:53:27;22.00;99.90
22167;DHT22;11249;52.468;13.776;2022-10-28T14:56:08;21.90;99.90
22167;DHT22;11249;52.468;13.776;2022-10-28T14:58:38;21.70;99.90
22167;DHT22;11249;52.468;13.776;2022-10-28T15:01:25;21.60;99.90
22167;DHT22;11249;52.468;13.776;2022-10-28T15:03:58;21.50;99.90
22167;DHT22;11249;52.468;13.776;2022-10-28T15:06:51;21.30;99.90
22167;DHT22;11249;52.468;13.776;2022-10-28T15:09:26;21.20;99.90
22167;DHT22;11249;52.468;13.776;2022-10-28T15:12:03;21.10;99.90
22167;DHT22;11249;52.468;13.776;2022-10-28T15:14:37;20.90;99.90
22167;DHT22;11249;52.468;13.776;2022-10-28T15:19:48;20.60;99.90
22167;DHT22;11249;52.468;13.776;2022-10-28T15:22:27;20.50;99.90
22167;DHT22;11249;52.468;13.776;2022-10-28T15:25:03;20.30;99.90
22167;DHT22;11249;52.468;13.776;2022-10-28T15:27:35;20.10;99.90
22167;DHT22;11249;52.468;13.776;2022-10-28T15:30:18;20.00;99.90
22167;DHT22;11249;52.468;13.776;2022-10-28T15:32:46;19.80;99.90
22167;DHT22;11249;52.468;13.776;2022-10-28T15:40:52;19.30;99.90
22167;DHT22;11249;52.468;13.776;2022-10-28T15:43:24;19.20;99.90
22167;DHT22;11249;52.468;13.776;2022-10-28T15:45:51;19.10;99.90
22167;DHT22;11249;52.468;13.776;2022-10-28T15:48:23;18.90;99.90
22167;DHT22;11249;52.468;13.776;2022-10-28T15:51:13;18.80;99.90
22167;DHT22;11249;52.468;13.776;2022-10-28T15:53:42;18.60;99.90
22167;DHT22;11249;52.468;13.776;2022-10-28T15:58:40;18.40;99.90
22167;DHT22;11249;52.468;13.776;2022-10-28T16:01:25;18.30;99.90
22167;DHT22;11249;52.468;13.776;2022-10-28T16:03:52;18.20;99.90
22167;DHT22;11249;52.468;13.776;2022-10-28T16:06:23;18.10;99.90
22167;DHT22;11249;52.468;13.776;2022-10-28T16:11:39;17.90;99.90
22167;DHT22;11249;52.468;13.776;2022-10-28T16:14:35;17.80;99.90
22167;DHT22;11249;52.468;13.776;2022-10-28T16:17:27;17.70;99.90
22167;DHT22;11249;52.468;13.776;2022-10-28T16:20:01;17.60;99.90
22167;DHT22;11249;52.468;13.776;2022-10-28T16:22:30;17.50;99.90
22167;DHT22;11249;52.468;13.776;2022-10-28T16:24:59;17.40;99.90
22167;DHT22;11249;52.468;13.776;2022-10-28T16:27:29;17.40;99.90
22167;DHT22;11249;52.468;13.776;2022-10-28T16:29:56;17.30;99.90
22167;DHT22;11249;52.468;13.776;2022-10-28T16:32:37;17.30;99.90
22167;DHT22;11249;52.468;13.776;2022-10-28T16:35:25;17.30;99.90
22167;DHT22;11249;52.468;13.776;2022-10-28T16:37:52;17.20;99.90
22167;DHT22;11249;52.468;13.776;2022-10-28T16:40:21;17.20;99.90
22167;DHT22;11249;52.468;13.776;2022-10-28T16:43:14;17.10;99.90
22167;DHT22;11249;52.468;13.776;2022-10-28T16:45:42;17.00;99.90
22167;DHT22;11249;52.468;13.776;2022-10-28T16:48:11;17.00;99.90
22167;DHT22;11249;52.468;13.776;2022-10-28T16:50:40;16.90;99.90
22167;DHT22;11249;52.468;13.776;2022-10-28T16:53:10;16.80;99.90
22167;DHT22;11249;52.468;13.776;2022-10-28T16:55:37;16.70;99.90
22167;DHT22;11249;52.468;13.776;2022-10-28T16:58:04;16.60;99.90
22167;DHT22;11249;52.468;13.776;2022-10-28T17:00:31;16.50;99.90
22167;DHT22;11249;52.468;13.776;2022-10-28T17:02:58;16.50;99.90
22167;DHT22;11249;52.468;13.776;2022-10-28T17:05:25;16.40;99.90
22167;DHT22;11249;52.468;13.776;2022-10-28T17:07:52;16.40;99.90
22167;DHT22;11249;52.468;13.776;2022-10-28T17:10:22;16.30;99.90
22167;DHT22;11249;52.468;13.776;2022-10-28T17:12:49;16.20;99.90
22167;DHT22;11249;52.468;13.776;2022-10-28T17:15:18;16.20;99.90
22167;DHT22;11249;52.468;13.776;2022-10-28T17:17:48;16.00;99.90
22167;DHT22;11249;52.468;13.776;2022-10-28T17:20:15;16.00;99.90
22167;DHT22;11249;52.468;13.776;2022-10-28T17:22:42;16.00;99.90
22167;DHT22;11249;52.468;13.776;2022-10-28T17:25:09;15.90;99.90
22167;DHT22;11249;52.468;13.776;2022-10-28T17:27:36;15.80;99.90
22167;DHT22;11249;52.468;13.776;2022-10-28T17:30:03;15.80;99.90
22167;DHT22;11249;52.468;13.776;2022-10-28T17:32:30;15.80;99.90
22167;DHT22;11249;52.468;13.776;2022-10-28T17:34:57;15.80;99.90